aviador You're here:

YMLT Decoded Metar

LAUNCESTON in AUSTRALIA
Report Time2017-08-22 11:00:00
UTC Time2017-08-22 11:13:15
Flight Rules vfr VFR
Wind340° at 12 kt
W.Decomp.*RWY 32: 11.9 kt HW 1.3 kt RCW
RWY 36: 9.9 kt HW 6.7 kt LCW
W.Rank340° ranks 1
Current wind is below 340° avg. (12.1)
Visibility9999 m
Phenomena:N/A
Clouds:Scattered 054 Hf
Expected CloudBase > 800 ft AGL from Temp-Dew spread
CeilingNone
Temp08°C (ISA -6)
Dew Point06°C (87% RH)
AAT2.8°C
QNH1014 hPa
Density Alt-23 ft
Elevation584 ft
Report Wrong Elevation
Raw Report
METAR YMLT 221100Z AUTO 34012KT 9999 // SCT054 08/06 Q1014
RF00.0/000.0=

Extra information for YMLT:More info

Metar Taf Metar & Taf Last 4 Metars F.Rules Stats Wind Profile Meteogram Temp Stats Airport Information Weather charts Add Link Nearby VenuesMetar ALERT Operation Metar Decoded Social comments